sensor_id;sensor_type;location;lat;lon;timestamp;pressure;altitude;pressure_sealevel;temperature;humidity
73624;BME280;61921;53.226;-1.296;2023-09-12T00:02:05;75772.58;;;-138.45;82.17
73624;BME280;61921;53.226;-1.296;2023-09-12T00:04:30;75803.75;;;-138.45;82.41
73624;BME280;61921;53.226;-1.296;2023-09-12T00:06:55;75781.07;;;-138.45;82.24
73624;BME280;61921;53.226;-1.296;2023-09-12T00:09:20;75801.60;;;-138.45;82.13
73624;BME280;61921;53.226;-1.296;2023-09-12T00:11:45;75810.47;;;-138.45;82.06
73624;BME280;61921;53.226;-1.296;2023-09-12T00:14:15;75827.32;;;-138.45;83.85
73624;BME280;61921;53.226;-1.296;2023-09-12T00:16:36;75806.54;;;-138.45;83.10
73624;BME280;61921;53.226;-1.296;2023-09-12T00:19:01;75789.18;;;-138.45;82.78
73624;BME280;61921;53.226;-1.296;2023-09-12T00:21:26;75805.02;;;-138.45;83.11
73624;BME280;61921;53.226;-1.296;2023-09-12T00:23:51;75783.22;;;-138.45;83.08
73624;BME280;61921;53.226;-1.296;2023-09-12T00:26:16;75792.35;;;-138.45;83.10
73624;BME280;61921;53.226;-1.296;2023-09-12T00:28:42;75789.31;;;-138.45;83.35
73624;BME280;61921;53.226;-1.296;2023-09-12T00:31:07;75767.26;;;-138.45;83.05
73624;BME280;61921;53.226;-1.296;2023-09-12T00:33:32;75787.53;;;-138.45;83.22
73624;BME280;61921;53.226;-1.296;2023-09-12T00:35:57;75783.60;;;-138.45;83.19
73624;BME280;61921;53.226;-1.296;2023-09-12T00:38:22;75778.79;;;-138.45;83.45
73624;BME280;61921;53.226;-1.296;2023-09-12T00:40:48;75746.10;;;-138.45;82.91
73624;BME280;61921;53.226;-1.296;2023-09-12T00:43:13;75727.72;;;-138.45;82.11
73624;BME280;61921;53.226;-1.296;2023-09-12T00:45:38;75756.49;;;-138.45;81.94
73624;BME280;61921;53.226;-1.296;2023-09-12T00:48:04;75732.79;;;-138.45;81.52
73624;BME280;61921;53.226;-1.296;2023-09-12T00:50:29;75756.49;;;-138.45;81.57
73624;BME280;61921;53.226;-1.296;2023-09-12T00:52:54;75718.22;;;-138.45;81.23
73624;BME280;61921;53.226;-1.296;2023-09-12T00:55:19;75686.92;;;-138.45;80.66
73624;BME280;61921;53.226;-1.296;2023-09-12T00:57:45;75658.41;;;-138.45;80.58
73624;BME280;61921;53.226;-1.296;2023-09-12T01:00:12;75658.92;;;-138.45;79.46
73624;BME280;61921;53.226;-1.296;2023-09-12T01:02:35;75633.32;;;-138.45;79.01
73624;BME280;61921;53.226;-1.296;2023-09-12T01:05:00;75623.19;;;-138.45;78.51
73624;BME280;61921;53.226;-1.296;2023-09-12T01:07:25;75612.03;;;-138.45;77.98
73624;BME280;61921;53.226;-1.296;2023-09-12T01:09:50;75611.91;;;-138.45;77.41
73624;BME280;61921;53.226;-1.296;2023-09-12T01:12:15;75623.31;;;-138.45;75.88
73624;BME280;61921;53.226;-1.296;2023-09-12T01:14:42;75696.30;;;-138.45;78.02
73624;BME280;61921;53.226;-1.296;2023-09-12T01:17:07;75646.37;;;-138.45;78.18
73624;BME280;61921;53.226;-1.296;2023-09-12T01:19:33;75634.46;;;-138.45;78.38
73624;BME280;61921;53.226;-1.296;2023-09-12T01:22:15;75691.99;;;-138.45;77.79
73624;BME280;61921;53.226;-1.296;2023-09-12T01:24:37;75685.15;;;-138.45;78.36
73624;BME280;61921;53.226;-1.296;2023-09-12T01:26:57;75715.56;;;-138.45;80.05
73624;BME280;61921;53.226;-1.296;2023-09-12T01:29:15;75698.83;;;-138.45;79.77
73624;BME280;61921;53.226;-1.296;2023-09-12T01:31:40;75682.49;;;-138.45;80.26
73624;BME280;61921;53.226;-1.296;2023-09-12T01:34:09;75662.72;;;-138.45;80.06
73624;BME280;61921;53.226;-1.296;2023-09-12T01:36:30;75646.75;;;-138.45;80.33
73624;BME280;61921;53.226;-1.296;2023-09-12T01:38:55;75668.42;;;-138.45;78.76
73624;BME280;61921;53.226;-1.296;2023-09-12T01:41:20;75713.28;;;-138.45;79.41
73624;BME280;61921;53.226;-1.296;2023-09-12T01:43:47;75689.96;;;-138.45;80.12
73624;BME280;61921;53.226;-1.296;2023-09-12T01:46:11;75726.96;;;-138.45;80.94
73624;BME280;61921;53.226;-1.296;2023-09-12T01:48:37;75703.90;;;-138.45;80.89
73624;BME280;61921;53.226;-1.296;2023-09-12T01:51:03;75684.77;;;-138.45;80.62
73624;BME280;61921;53.226;-1.296;2023-09-12T01:53:29;75707.96;;;-138.45;80.15
73624;BME280;61921;53.226;-1.296;2023-09-12T01:55:52;75690.85;;;-138.45;79.08
73624;BME280;61921;53.226;-1.296;2023-09-12T01:58:18;75684.13;;;-138.45;79.77
73624;BME280;61921;53.226;-1.296;2023-09-12T02:00:44;75723.29;;;-138.45;80.26
73624;BME280;61921;53.226;-1.296;2023-09-12T02:03:09;75705.17;;;-138.45;79.92
73624;BME280;61921;53.226;-1.296;2023-09-12T02:05:34;75701.62;;;-138.45;79.81
73624;BME280;61921;53.226;-1.296;2023-09-12T02:08:00;75706.18;;;-138.45;80.00
73624;BME280;61921;53.226;-1.296;2023-09-12T02:10:25;75690.22;;;-138.45;79.76
73624;BME280;61921;53.226;-1.296;2023-09-12T02:12:50;75685.78;;;-138.45;79.47
73624;BME280;61921;53.226;-1.296;2023-09-12T02:15:15;75706.31;;;-138.45;79.77
73624;BME280;61921;53.226;-1.296;2023-09-12T02:17:41;75737.48;;;-138.45;81.02
73624;BME280;61921;53.226;-1.296;2023-09-12T02:20:08;75716.70;;;-138.45;80.70
73624;BME280;61921;53.226;-1.296;2023-09-12T02:22:32;75760.29;;;-138.45;81.44
73624;BME280;61921;53.226;-1.296;2023-09-12T02:24:58;75715.05;;;-138.45;80.91
73624;BME280;61921;53.226;-1.296;2023-09-12T02:27:23;75754.21;;;-138.45;81.41
73624;BME280;61921;53.226;-1.296;2023-09-12T02:29:48;75744.32;;;-138.45;81.89
73624;BME280;61921;53.226;-1.296;2023-09-12T02:32:14;75744.83;;;-138.45;81.98
73624;BME280;61921;53.226;-1.296;2023-09-12T02:34:38;75734.57;;;-138.45;81.92
73624;BME280;61921;53.226;-1.296;2023-09-12T02:37:04;75700.35;;;-138.45;82.21
73624;BME280;61921;53.226;-1.296;2023-09-12T02:39:30;75677.04;;;-138.45;82.04
73624;BME280;61921;53.226;-1.296;2023-09-12T02:41:55;75676.91;;;-138.45;81.24
73624;BME280;61921;53.226;-1.296;2023-09-12T02:44:20;75660.31;;;-138.45;80.99
73624;BME280;61921;53.226;-1.296;2023-09-12T02:46:46;75660.56;;;-138.45;80.35
73624;BME280;61921;53.226;-1.296;2023-09-12T02:49:12;75717.84;;;-138.45;80.68
73624;BME280;61921;53.226;-1.296;2023-09-12T02:51:38;75702.63;;;-138.45;81.23
73624;BME280;61921;53.226;-1.296;2023-09-12T02:54:03;75729.37;;;-138.45;81.21
73624;BME280;61921;53.226;-1.296;2023-09-12T02:56:30;75724.05;;;-138.45;81.34
73624;BME280;61921;53.226;-1.296;2023-09-12T02:58:53;75748.00;;;-138.45;81.53
73624;BME280;61921;53.226;-1.296;2023-09-12T03:01:19;75731.52;;;-138.45;81.63
73624;BME280;61921;53.226;-1.296;2023-09-12T03:03:45;75752.31;;;-138.45;81.89
73624;BME280;61921;53.226;-1.296;2023-09-12T03:06:09;75750.53;;;-138.45;82.26
73624;BME280;61921;53.226;-1.296;2023-09-12T03:08:34;75752.18;;;-138.45;82.71
73624;BME280;61921;53.226;-1.296;2023-09-12T03:10:59;75732.79;;;-138.45;82.56
73624;BME280;61921;53.226;-1.296;2023-09-12T03:13:25;75705.42;;;-138.45;82.35
73624;BME280;61921;53.226;-1.296;2023-09-12T03:15:50;75694.90;;;-138.45;82.05
73624;BME280;61921;53.226;-1.296;2023-09-12T03:18:16;75711.50;;;-138.45;81.62
73624;BME280;61921;53.226;-1.296;2023-09-12T03:20:41;75742.80;;;-138.45;81.73
73624;BME280;61921;53.226;-1.296;2023-09-12T03:23:06;75714.16;;;-138.45;81.44
73624;BME280;61921;53.226;-1.296;2023-09-12T03:25:35;75695.16;;;-138.45;81.26
73624;BME280;61921;53.226;-1.296;2023-09-12T03:27:56;75667.53;;;-138.45;81.64
73624;BME280;61921;53.226;-1.296;2023-09-12T03:30:22;75661.83;;;-138.45;80.67
73624;BME280;61921;53.226;-1.296;2023-09-12T03:32:47;75689.46;;;-138.45;80.03
73624;BME280;61921;53.226;-1.296;2023-09-12T03:35:12;75673.11;;;-138.45;80.21
73624;BME280;61921;53.226;-1.296;2023-09-12T03:37:37;75677.16;;;-138.45;80.34
73624;BME280;61921;53.226;-1.296;2023-09-12T03:40:02;75708.46;;;-138.45;81.22
73624;BME280;61921;53.226;-1.296;2023-09-12T03:42:27;75724.68;;;-138.45;81.76
73624;BME280;61921;53.226;-1.296;2023-09-12T03:44:52;75695.28;;;-138.45;81.48
73624;BME280;61921;53.226;-1.296;2023-09-12T03:47:18;75713.02;;;-138.45;81.52
73624;BME280;61921;53.226;-1.296;2023-09-12T03:49:43;75701.75;;;-138.45;81.59
73624;BME280;61921;53.226;-1.296;2023-09-12T03:52:08;75701.87;;;-138.45;81.81
73624;BME280;61921;53.226;-1.296;2023-09-12T03:54:33;75740.14;;;-138.45;82.27
73624;BME280;61921;53.226;-1.296;2023-09-12T03:56:59;75702.63;;;-138.45;82.33
73624;BME280;61921;53.226;-1.296;2023-09-12T03:59:24;75725.95;;;-138.45;81.89
73624;BME280;61921;53.226;-1.296;2023-09-12T04:01:49;75778.54;;;-138.45;82.43
73624;BME280;61921;53.226;-1.296;2023-09-12T04:04:14;75794.50;;;-138.45;83.27
73624;BME280;61921;53.226;-1.296;2023-09-12T04:06:40;75773.85;;;-138.45;83.43
73624;BME280;61921;53.226;-1.296;2023-09-12T04:09:04;75788.42;;;-138.45;83.74
73624;BME280;61921;53.226;-1.296;2023-09-12T04:11:30;75806.41;;;-138.45;84.24
73624;BME280;61921;53.226;-1.296;2023-09-12T04:13:55;75826.05;;;-138.45;85.07
73624;BME280;61921;53.226;-1.296;2023-09-12T04:16:20;75818.20;;;-138.45;85.74
73624;BME280;61921;53.226;-1.296;2023-09-12T04:18:46;75794.12;;;-138.45;85.57
73624;BME280;61921;53.226;-1.296;2023-09-12T04:21:12;75799.32;;;-138.45;85.29
73624;BME280;61921;53.226;-1.296;2023-09-12T04:23:36;75794.25;;;-138.45;85.52
73624;BME280;61921;53.226;-1.296;2023-09-12T04:26:02;75806.29;;;-138.45;85.45
73624;BME280;61921;53.226;-1.296;2023-09-12T04:28:28;75824.91;;;-138.45;85.70
73624;BME280;61921;53.226;-1.296;2023-09-12T04:31:01;75857.99;;;-138.45;86.75
73624;BME280;61921;53.226;-1.296;2023-09-12T04:33:17;75847.09;;;-138.45;87.24
73624;BME280;61921;53.226;-1.296;2023-09-12T04:35:42;75821.75;;;-138.45;86.94
73624;BME280;61921;53.226;-1.296;2023-09-12T04:38:08;75829.10;;;-138.45;87.41
73624;BME280;61921;53.226;-1.296;2023-09-12T04:40:33;75838.85;;;-138.45;87.51
73624;BME280;61921;53.226;-1.296;2023-09-12T04:42:59;75816.17;;;-138.45;87.12
73624;BME280;61921;53.226;-1.296;2023-09-12T04:45:27;75794.50;;;-138.45;86.85
73624;BME280;61921;53.226;-1.296;2023-09-12T04:47:48;75781.70;;;-138.45;86.22
73624;BME280;61921;53.226;-1.296;2023-09-12T04:50:14;75791.33;;;-138.45;85.61
73624;BME280;61921;53.226;-1.296;2023-09-12T04:52:39;75777.52;;;-138.45;85.31
73624;BME280;61921;53.226;-1.296;2023-09-12T04:55:05;75777.40;;;-138.45;84.98
73624;BME280;61921;53.226;-1.296;2023-09-12T04:57:30;75805.65;;;-138.45;85.06
73624;BME280;61921;53.226;-1.296;2023-09-12T04:59:54;75836.70;;;-138.45;85.50
73624;BME280;61921;53.226;-1.296;2023-09-12T05:02:19;75814.14;;;-138.45;85.40
73624;BME280;61921;53.226;-1.296;2023-09-12T05:04:45;75800.08;;;-138.45;85.58
73624;BME280;61921;53.226;-1.296;2023-09-12T05:07:10;75840.25;;;-138.45;85.78
73624;BME280;61921;53.226;-1.296;2023-09-12T05:09:35;75838.60;;;-138.45;85.98
73624;BME280;61921;53.226;-1.296;2023-09-12T05:12:00;75839.36;;;-138.45;86.33
73624;BME280;61921;53.226;-1.296;2023-09-12T05:14:25;75850.38;;;-138.45;86.21
73624;BME280;61921;53.226;-1.296;2023-09-12T05:16:51;75892.33;;;-138.45;86.57
73624;BME280;61921;53.226;-1.296;2023-09-12T05:19:16;75879.78;;;-138.45;87.55
73624;BME280;61921;53.226;-1.296;2023-09-12T05:21:41;75873.70;;;-138.45;87.41
73624;BME280;61921;53.226;-1.296;2023-09-12T05:24:06;75877.63;;;-138.45;87.22
73624;BME280;61921;53.226;-1.296;2023-09-12T05:26:32;75865.21;;;-138.45;86.90
73624;BME280;61921;53.226;-1.296;2023-09-12T05:28:57;75891.70;;;-138.45;87.01
73624;BME280;61921;53.226;-1.296;2023-09-12T05:31:22;75896.13;;;-138.45;87.59
73624;BME280;61921;53.226;-1.296;2023-09-12T05:33:48;75904.49;;;-138.45;87.47
73624;BME280;61921;53.226;-1.296;2023-09-12T05:36:13;75925.02;;;-138.45;88.10
73624;BME280;61921;53.226;-1.296;2023-09-12T05:38:38;75927.05;;;-138.45;88.46
73624;BME280;61921;53.226;-1.296;2023-09-12T05:41:04;75925.28;;;-138.45;88.79
73624;BME280;61921;53.226;-1.296;2023-09-12T05:43:29;75937.44;;;-138.45;89.35
73624;BME280;61921;53.226;-1.296;2023-09-12T05:45:54;75926.54;;;-138.45;89.21
73624;BME280;61921;53.226;-1.296;2023-09-12T05:48:19;75929.97;;;-138.45;88.96
73624;BME280;61921;53.226;-1.296;2023-09-12T05:50:45;75968.49;;;-138.45;88.89
73624;BME280;61921;53.226;-1.296;2023-09-12T05:53:10;75949.10;;;-138.45;89.40
73624;BME280;61921;53.226;-1.296;2023-09-12T05:55:36;75965.70;;;-138.45;90.01
73624;BME280;61921;53.226;-1.296;2023-09-12T05:58:01;75990.67;;;-138.45;89.95
73624;BME280;61921;53.226;-1.296;2023-09-12T06:00:28;75984.33;;;-138.45;90.40
73624;BME280;61921;53.226;-1.296;2023-09-12T06:02:52;75966.46;;;-138.45;90.15
73624;BME280;61921;53.226;-1.296;2023-09-12T06:05:17;75933.77;;;-138.45;89.73
73624;BME280;61921;53.226;-1.296;2023-09-12T06:07:43;75940.48;;;-138.45;89.17
73624;BME280;61921;53.226;-1.296;2023-09-12T06:10:09;75953.41;;;-138.45;89.37
73624;BME280;61921;53.226;-1.296;2023-09-12T06:12:35;75977.36;;;-138.45;89.38
73624;BME280;61921;53.226;-1.296;2023-09-12T06:14:58;76006.00;;;-138.45;90.07
73624;BME280;61921;53.226;-1.296;2023-09-12T06:17:24;76011.96;;;-138.45;90.33
73624;BME280;61921;53.226;-1.296;2023-09-12T06:19:50;76021.59;;;-138.45;90.68
73624;BME280;61921;53.226;-1.296;2023-09-12T06:22:14;76030.20;;;-138.45;90.86
73624;BME280;61921;53.226;-1.296;2023-09-12T06:24:39;76046.55;;;-138.45;91.28
73624;BME280;61921;53.226;-1.296;2023-09-12T06:27:05;76043.26;;;-138.45;91.18
73624;BME280;61921;53.226;-1.296;2023-09-12T06:29:30;76052.63;;;-138.45;91.12
73624;BME280;61921;53.226;-1.296;2023-09-12T06:31:55;76068.35;;;-138.45;91.45
73624;BME280;61921;53.226;-1.296;2023-09-12T06:34:20;76064.80;;;-138.45;91.83
73624;BME280;61921;53.226;-1.296;2023-09-12T06:36:46;76087.23;;;-138.45;91.84
73624;BME280;61921;53.226;-1.296;2023-09-12T06:39:11;76060.36;;;-138.45;92.02
73624;BME280;61921;53.226;-1.296;2023-09-12T06:41:36;76060.36;;;-138.45;91.76
73624;BME280;61921;53.226;-1.296;2023-09-12T06:44:01;76066.45;;;-138.45;91.75
73624;BME280;61921;53.226;-1.296;2023-09-12T06:46:27;76067.71;;;-138.45;91.55
73624;BME280;61921;53.226;-1.296;2023-09-12T06:48:52;76083.18;;;-138.45;92.08
73624;BME280;61921;53.226;-1.296;2023-09-12T06:51:17;76091.67;;;-138.45;92.38
73624;BME280;61921;53.226;-1.296;2023-09-12T06:53:43;76085.96;;;-138.45;92.44
73624;BME280;61921;53.226;-1.296;2023-09-12T06:56:08;76093.95;;;-138.45;92.63
73624;BME280;61921;53.226;-1.296;2023-09-12T06:58:33;76091.79;;;-138.45;92.96
73624;BME280;61921;53.226;-1.296;2023-09-12T07:01:02;76106.75;;;-138.45;93.07
73624;BME280;61921;53.226;-1.296;2023-09-12T07:03:23;76104.59;;;-138.45;93.11
73624;BME280;61921;53.226;-1.296;2023-09-12T07:05:49;76110.55;;;-138.45;93.39
73624;BME280;61921;53.226;-1.296;2023-09-12T07:08:14;76114.22;;;-138.45;93.66
73624;BME280;61921;53.226;-1.296;2023-09-12T07:10:44;76129.56;;;-138.45;93.84
73624;BME280;61921;53.226;-1.296;2023-09-12T07:13:04;76107.63;;;-138.45;94.32
73624;BME280;61921;53.226;-1.296;2023-09-12T07:15:30;76108.01;;;-138.45;94.35
73624;BME280;61921;53.226;-1.296;2023-09-12T07:17:55;76112.20;;;-138.45;94.22
73624;BME280;61921;53.226;-1.296;2023-09-12T07:20:20;76117.01;;;-138.45;94.17
73624;BME280;61921;53.226;-1.296;2023-09-12T07:22:45;76114.86;;;-138.45;94.07
73624;BME280;61921;53.226;-1.296;2023-09-12T07:25:13;76127.53;;;-138.45;94.08
73624;BME280;61921;53.226;-1.296;2023-09-12T07:27:36;76151.10;;;-138.45;94.01
73624;BME280;61921;53.226;-1.296;2023-09-12T07:30:02;76151.74;;;-138.45;94.47
73624;BME280;61921;53.226;-1.296;2023-09-12T07:32:28;76151.86;;;-138.45;94.81
73624;BME280;61921;53.226;-1.296;2023-09-12T07:34:52;76140.84;;;-138.45;94.61
73624;BME280;61921;53.226;-1.296;2023-09-12T07:37:18;76109.79;;;-138.45;94.58
73624;BME280;61921;53.226;-1.296;2023-09-12T07:39:43;76118.66;;;-138.45;94.10
73624;BME280;61921;53.226;-1.296;2023-09-12T07:42:08;76132.60;;;-138.45;93.73
73624;BME280;61921;53.226;-1.296;2023-09-12T07:44:34;76155.66;;;-138.45;93.41
73624;BME280;61921;53.226;-1.296;2023-09-12T07:46:59;76158.71;;;-138.45;93.70
73624;BME280;61921;53.226;-1.296;2023-09-12T07:49:24;76142.48;;;-138.45;94.03
73624;BME280;61921;53.226;-1.296;2023-09-12T07:51:49;76150.72;;;-138.45;94.01
73624;BME280;61921;53.226;-1.296;2023-09-12T07:54:14;76155.03;;;-138.45;93.84
73624;BME280;61921;53.226;-1.296;2023-09-12T07:56:39;76179.49;;;-138.45;93.92
73624;BME280;61921;53.226;-1.296;2023-09-12T07:59:05;76177.21;;;-138.45;94.39
73624;BME280;61921;53.226;-1.296;2023-09-12T08:01:30;76176.57;;;-138.45;94.80
73624;BME280;61921;53.226;-1.296;2023-09-12T08:03:55;76180.25;;;-138.45;94.87
73624;BME280;61921;53.226;-1.296;2023-09-12T08:06:20;76154.14;;;-138.45;94.80
73624;BME280;61921;53.226;-1.296;2023-09-12T08:08:46;76172.01;;;-138.45;94.07
73624;BME280;61921;53.226;-1.296;2023-09-12T08:11:11;76162.00;;;-138.45;94.11
73624;BME280;61921;53.226;-1.296;2023-09-12T08:13:36;76166.94;;;-138.45;94.12
73624;BME280;61921;53.226;-1.296;2023-09-12T08:16:01;76160.23;;;-138.45;94.19
73624;BME280;61921;53.226;-1.296;2023-09-12T08:18:29;76191.66;;;-138.45;94.08
73624;BME280;61921;53.226;-1.296;2023-09-12T08:20:52;76168.21;;;-138.45;94.37
73624;BME280;61921;53.226;-1.296;2023-09-12T08:23:17;76193.94;;;-138.45;94.41
73624;BME280;61921;53.226;-1.296;2023-09-12T08:25:43;76166.44;;;-138.45;94.35
73624;BME280;61921;53.226;-1.296;2023-09-12T08:28:08;76180.63;;;-138.45;93.97
73624;BME280;61921;53.226;-1.296;2023-09-12T08:30:33;76190.13;;;-138.45;94.16
73624;BME280;61921;53.226;-1.296;2023-09-12T08:32:58;76191.15;;;-138.45;94.17
73624;BME280;61921;53.226;-1.296;2023-09-12T08:35:23;76176.57;;;-138.45;94.27
73624;BME280;61921;53.226;-1.296;2023-09-12T08:37:49;76179.74;;;-138.45;94.18
73624;BME280;61921;53.226;-1.296;2023-09-12T08:40:14;76186.33;;;-138.45;94.09
73624;BME280;61921;53.226;-1.296;2023-09-12T08:42:40;76173.41;;;-138.45;94.35
73624;BME280;61921;53.226;-1.296;2023-09-12T08:45:05;76186.71;;;-138.45;94.85
73624;BME280;61921;53.226;-1.296;2023-09-12T08:47:31;76184.81;;;-138.45;94.88
73624;BME280;61921;53.226;-1.296;2023-09-12T08:49:56;76186.71;;;-138.45;94.33
73624;BME280;61921;53.226;-1.296;2023-09-12T08:52:20;76151.23;;;-138.45;94.43
73624;BME280;61921;53.226;-1.296;2023-09-12T08:54:46;76132.35;;;-138.45;93.84
73624;BME280;61921;53.226;-1.296;2023-09-12T08:57:11;76163.90;;;-138.45;93.50
73624;BME280;61921;53.226;-1.296;2023-09-12T08:59:37;76172.39;;;-138.45;93.83
73624;BME280;61921;53.226;-1.296;2023-09-12T09:02:03;76160.86;;;-138.45;94.19
73624;BME280;61921;53.226;-1.296;2023-09-12T09:04:29;76157.57;;;-138.45;93.91
73624;BME280;61921;53.226;-1.296;2023-09-12T09:06:52;76171.63;;;-138.45;93.70
73624;BME280;61921;53.226;-1.296;2023-09-12T09:09:17;76160.23;;;-138.45;94.21
73624;BME280;61921;53.226;-1.296;2023-09-12T09:11:42;76137.03;;;-138.45;94.28
73624;BME280;61921;53.226;-1.296;2023-09-12T09:14:07;76138.05;;;-138.45;94.00
73624;BME280;61921;53.226;-1.296;2023-09-12T09:16:33;76142.23;;;-138.45;93.40
73624;BME280;61921;53.226;-1.296;2023-09-12T09:19:00;76145.78;;;-138.45;93.22
73624;BME280;61921;53.226;-1.296;2023-09-12T09:21:25;76152.50;;;-138.45;93.17
73624;BME280;61921;53.226;-1.296;2023-09-12T09:23:48;76142.74;;;-138.45;93.11
73624;BME280;61921;53.226;-1.296;2023-09-12T09:26:14;76128.42;;;-138.45;93.09
73624;BME280;61921;53.226;-1.296;2023-09-12T09:28:39;76156.55;;;-138.45;92.92
73624;BME280;61921;53.226;-1.296;2023-09-12T09:31:05;76156.55;;;-138.45;93.46
73624;BME280;61921;53.226;-1.296;2023-09-12T09:33:35;76170.74;;;-138.45;93.96
73624;BME280;61921;53.226;-1.296;2023-09-12T09:36:02;76144.51;;;-138.45;93.94
73624;BME280;61921;53.226;-1.296;2023-09-12T09:38:20;76112.83;;;-138.45;93.76
73624;BME280;61921;53.226;-1.296;2023-09-12T09:40:45;76107.51;;;-138.45;93.08
73624;BME280;61921;53.226;-1.296;2023-09-12T09:43:10;76121.95;;;-138.45;91.88
73624;BME280;61921;53.226;-1.296;2023-09-12T09:45:43;76150.85;;;-138.45;92.02
73624;BME280;61921;53.226;-1.296;2023-09-12T09:48:05;76123.60;;;-138.45;92.47
73624;BME280;61921;53.226;-1.296;2023-09-12T09:50:26;76128.42;;;-138.45;92.09
73624;BME280;61921;53.226;-1.296;2023-09-12T09:52:54;76130.19;;;-138.45;91.90
73624;BME280;61921;53.226;-1.296;2023-09-12T09:55:19;76122.97;;;-138.45;91.93
73624;BME280;61921;53.226;-1.296;2023-09-12T09:57:41;76133.23;;;-138.45;91.76
73624;BME280;61921;53.226;-1.296;2023-09-12T10:00:07;76121.83;;;-138.45;92.00
73624;BME280;61921;53.226;-1.296;2023-09-12T10:02:32;76077.73;;;-138.45;92.06
73624;BME280;61921;53.226;-1.296;2023-09-12T10:04:58;76063.66;;;-138.45;91.88
73624;BME280;61921;53.226;-1.296;2023-09-12T10:07:23;76053.77;;;-138.45;90.62
73624;BME280;61921;53.226;-1.296;2023-09-12T10:09:47;76083.30;;;-138.45;90.20
73624;BME280;61921;53.226;-1.296;2023-09-12T10:12:13;76116.38;;;-138.45;90.89
73624;BME280;61921;53.226;-1.296;2023-09-12T10:14:39;76086.47;;;-138.45;91.88
73624;BME280;61921;53.226;-1.296;2023-09-12T10:17:03;76091.67;;;-138.45;92.08
73624;BME280;61921;53.226;-1.296;2023-09-12T10:19:34;76094.33;;;-138.45;91.85
73624;BME280;61921;53.226;-1.296;2023-09-12T10:22:00;76082.54;;;-138.45;91.86
73624;BME280;61921;53.226;-1.296;2023-09-12T10:24:19;76099.14;;;-138.45;92.08
73624;BME280;61921;53.226;-1.296;2023-09-12T10:26:44;76090.91;;;-138.45;92.58
73624;BME280;61921;53.226;-1.296;2023-09-12T10:29:10;76111.82;;;-138.45;92.14
73624;BME280;61921;53.226;-1.296;2023-09-12T10:31:34;76116.63;;;-138.45;92.34
73624;BME280;61921;53.226;-1.296;2023-09-12T10:34:00;76104.09;;;-138.45;92.61
73624;BME280;61921;53.226;-1.296;2023-09-12T10:36:26;76103.96;;;-138.45;92.60
73624;BME280;61921;53.226;-1.296;2023-09-12T10:38:51;76141.98;;;-138.45;92.31
73624;BME280;61921;53.226;-1.296;2023-09-12T10:41:16;76146.54;;;-138.45;92.66
73624;BME280;61921;53.226;-1.296;2023-09-12T10:43:41;76160.35;;;-138.45;92.90
73624;BME280;61921;53.226;-1.296;2023-09-12T10:46:06;76178.73;;;-138.45;93.25
73624;BME280;61921;53.226;-1.296;2023-09-12T10:48:32;76186.71;;;-138.45;93.97
73624;BME280;61921;53.226;-1.296;2023-09-12T10:50:57;76166.06;;;-138.45;94.81
73624;BME280;61921;53.226;-1.296;2023-09-12T10:53:23;76170.36;;;-138.45;94.64
73624;BME280;61921;53.226;-1.296;2023-09-12T10:58:13;76190.77;;;-138.45;94.71
73624;BME280;61921;53.226;-1.296;2023-09-12T11:00:38;76202.17;;;-138.45;94.86
73624;BME280;61921;53.226;-1.296;2023-09-12T11:05:37;76170.36;;;-138.45;94.59
73624;BME280;61921;53.226;-1.296;2023-09-12T11:07:56;76182.15;;;-138.45;93.99
73624;BME280;61921;53.226;-1.296;2023-09-12T11:10:21;76163.65;;;-138.45;94.18
73624;BME280;61921;53.226;-1.296;2023-09-12T11:12:44;76173.53;;;-138.45;93.86
73624;BME280;61921;53.226;-1.296;2023-09-12T11:15:09;76163.39;;;-138.45;93.94
73624;BME280;61921;53.226;-1.296;2023-09-12T11:17:38;76179.11;;;-138.45;94.00
73624;BME280;61921;53.226;-1.296;2023-09-12T11:20:03;76143.37;;;-138.45;94.37
73624;BME280;61921;53.226;-1.296;2023-09-12T11:22:26;76144.64;;;-138.45;93.84
73624;BME280;61921;53.226;-1.296;2023-09-12T11:24:50;76101.04;;;-138.45;93.85
73624;BME280;61921;53.226;-1.296;2023-09-12T11:27:15;76072.78;;;-138.45;93.53
73624;BME280;61921;53.226;-1.296;2023-09-12T11:29:40;76070.50;;;-138.45;92.74
73624;BME280;61921;53.226;-1.296;2023-09-12T11:32:06;76075.82;;;-138.45;92.34
73624;BME280;61921;53.226;-1.296;2023-09-12T11:34:36;76102.94;;;-138.45;92.64
73624;BME280;61921;53.226;-1.296;2023-09-12T11:36:56;76124.74;;;-138.45;93.22
73624;BME280;61921;53.226;-1.296;2023-09-12T11:39:23;76087.36;;;-138.45;93.64
73624;BME280;61921;53.226;-1.296;2023-09-12T11:41:46;76136.53;;;-138.45;92.72
73624;BME280;61921;53.226;-1.296;2023-09-12T11:44:11;76144.64;;;-138.45;93.40
73624;BME280;61921;53.226;-1.296;2023-09-12T11:46:36;76147.30;;;-138.45;93.81
73624;BME280;61921;53.226;-1.296;2023-09-12T11:49:02;76164.03;;;-138.45;93.66
73624;BME280;61921;53.226;-1.296;2023-09-12T11:51:28;76151.10;;;-138.45;93.83
73624;BME280;61921;53.226;-1.296;2023-09-12T11:53:52;76144.39;;;-138.45;93.85
73624;BME280;61921;53.226;-1.296;2023-09-12T11:56:17;76156.55;;;-138.45;93.86
73624;BME280;61921;53.226;-1.296;2023-09-12T11:58:43;76151.23;;;-138.45;94.01
73624;BME280;61921;53.226;-1.296;2023-09-12T12:01:12;76137.80;;;-138.45;94.27
73624;BME280;61921;53.226;-1.296;2023-09-12T12:03:33;76128.29;;;-138.45;94.12
73624;BME280;61921;53.226;-1.296;2023-09-12T12:05:58;76141.60;;;-138.45;93.91
73624;BME280;61921;53.226;-1.296;2023-09-12T12:08:24;76146.41;;;-138.45;93.86
73624;BME280;61921;53.226;-1.296;2023-09-12T12:10:50;76139.57;;;-138.45;94.12
73624;BME280;61921;53.226;-1.296;2023-09-12T12:13:17;76155.28;;;-138.45;93.94
73624;BME280;61921;53.226;-1.296;2023-09-12T12:15:40;76177.97;;;-138.45;93.59
73624;BME280;61921;53.226;-1.296;2023-09-12T12:18:05;76169.22;;;-138.45;94.12
73624;BME280;61921;53.226;-1.296;2023-09-12T12:20:30;76135.13;;;-138.45;93.88
73624;BME280;61921;53.226;-1.296;2023-09-12T12:22:55;76122.46;;;-138.45;93.46
73624;BME280;61921;53.226;-1.296;2023-09-12T12:25:20;76139.06;;;-138.45;92.81